createdAt,value
2022-08-31T00:02:23.771Z,24.02
2022-08-31T00:05:25.524Z,23.89
2022-08-31T00:08:27.739Z,23.71
2022-08-31T00:11:31.072Z,23.77
2022-08-31T00:14:33.111Z,23.63
2022-08-31T00:17:34.541Z,23.76
2022-08-31T00:20:36.287Z,23.77
2022-08-31T00:23:37.751Z,23.77
2022-08-31T00:26:40.262Z,23.78
2022-08-31T00:29:42.100Z,23.72
2022-08-31T00:32:43.550Z,23.70
2022-08-31T00:35:45.422Z,23.71
2022-08-31T00:38:48.288Z,23.71
2022-08-31T00:41:50.094Z,23.74
2022-08-31T00:44:52.046Z,23.62
2022-08-31T00:47:54.562Z,23.52
2022-08-31T00:50:57.512Z,23.51
2022-08-31T00:54:00.131Z,23.41
2022-08-31T00:57:02.676Z,23.26
2022-08-31T01:00:09.857Z,23.17
2022-08-31T01:03:11.838Z,23.00
2022-08-31T01:06:16.012Z,22.92
2022-08-31T01:09:21.008Z,22.79
2022-08-31T01:12:23.601Z,22.76
2022-08-31T01:15:27.736Z,22.64
2022-08-31T01:18:30.632Z,22.46
2022-08-31T01:21:39.645Z,22.44
2022-08-31T01:24:46.400Z,22.44
2022-08-31T01:27:48.020Z,22.52
2022-08-31T01:31:04.076Z,22.45
2022-08-31T01:34:06.822Z,22.32
2022-08-31T01:37:08.479Z,22.23
2022-08-31T01:40:11.242Z,22.08
2022-08-31T01:43:12.925Z,21.91
2022-08-31T01:46:15.902Z,21.80
2022-08-31T01:49:19.305Z,21.80
2022-08-31T01:52:21.008Z,21.84
2022-08-31T01:55:24.696Z,21.89
2022-08-31T01:58:26.224Z,21.87
2022-08-31T02:01:47.200Z,21.73
2022-08-31T02:04:50.865Z,21.70
2022-08-31T02:07:56.037Z,21.70
2022-08-31T02:10:57.456Z,21.61
2022-08-31T02:13:59.103Z,21.61
2022-08-31T02:17:00.597Z,21.52
2022-08-31T02:20:02.240Z,21.57
2022-08-31T02:23:03.765Z,21.61
2022-08-31T02:26:05.804Z,21.70
2022-08-31T02:29:07.648Z,21.74
2022-08-31T02:32:09.355Z,21.78
2022-08-31T02:35:21.302Z,21.80
2022-08-31T02:38:23.041Z,21.84
2022-08-31T02:41:25.375Z,21.74
2022-08-31T02:44:27.188Z,21.78
2022-08-31T02:47:30.949Z,21.79
2022-08-31T02:50:53.648Z,21.81
2022-08-31T02:53:55.269Z,21.80
2022-08-31T02:56:56.737Z,21.75
2022-08-31T02:59:58.344Z,21.75
2022-08-31T03:03:04.864Z,21.76
2022-08-31T03:06:06.603Z,21.78
2022-08-31T03:09:08.037Z,21.66
2022-08-31T03:12:09.494Z,21.57
2022-08-31T03:15:11.593Z,21.52
2022-08-31T03:18:13.273Z,21.40
2022-08-31T03:21:15.774Z,21.37
2022-08-31T03:24:21.164Z,21.37
2022-08-31T03:27:24.669Z,21.36
2022-08-31T03:30:27.614Z,21.32
2022-08-31T03:33:40.821Z,21.24
2022-08-31T03:36:42.360Z,21.16
2022-08-31T03:39:43.783Z,21.09
2022-08-31T03:42:46.121Z,21.05
2022-08-31T03:45:49.467Z,20.92
2022-08-31T03:48:51.423Z,20.86
2022-08-31T03:51:53.183Z,20.78
2022-08-31T03:54:56.477Z,20.81
2022-08-31T03:57:58.385Z,20.83
2022-08-31T04:01:00.033Z,20.91
2022-08-31T04:04:24.326Z,20.98
2022-08-31T04:07:44.398Z,21.01
2022-08-31T04:11:13.672Z,21.00
2022-08-31T04:14:33.956Z,20.98
2022-08-31T04:17:57.961Z,21.00
2022-08-31T04:21:25.246Z,21.12
2022-08-31T04:24:26.742Z,21.20
2022-08-31T04:27:28.188Z,21.25
2022-08-31T04:30:29.629Z,21.22
2022-08-31T04:33:31.081Z,21.24
2022-08-31T04:36:32.773Z,21.23
2022-08-31T04:39:34.588Z,21.14
2022-08-31T04:42:50.841Z,21.13
2022-08-31T04:45:55.956Z,21.20
2022-08-31T04:48:58.376Z,21.20
2022-08-31T04:51:59.838Z,21.19
2022-08-31T04:55:05.704Z,21.22
2022-08-31T04:58:07.335Z,21.32
2022-08-31T05:01:11.895Z,21.34
2022-08-31T05:04:45.757Z,21.36
2022-08-31T05:07:47.271Z,21.38
2022-08-31T05:10:48.764Z,21.39
2022-08-31T05:13:50.494Z,21.41
2022-08-31T05:16:52.552Z,21.48
2022-08-31T05:19:56.176Z,21.50
2022-08-31T05:22:58.353Z,21.52
2022-08-31T05:26:00.200Z,21.60
2022-08-31T05:29:04.389Z,21.65
2022-08-31T05:32:08.708Z,21.67
2022-08-31T05:35:10.184Z,21.68
2022-08-31T05:38:12.763Z,21.67
2022-08-31T05:41:14.773Z,21.65
2022-08-31T05:44:17.594Z,21.64
2022-08-31T05:47:19.234Z,21.61
2022-08-31T05:50:23.790Z,21.50
2022-08-31T05:53:27.078Z,21.54
2022-08-31T05:56:28.640Z,21.58
2022-08-31T05:59:32.938Z,21.51
2022-08-31T06:02:36.967Z,21.51
2022-08-31T06:05:38.483Z,21.52
2022-08-31T06:08:41.015Z,21.48
2022-08-31T06:11:42.580Z,21.45
2022-08-31T06:14:53.249Z,21.41
2022-08-31T06:17:55.289Z,21.31
2022-08-31T06:21:09.047Z,21.36
2022-08-31T06:24:12.030Z,21.40
2022-08-31T06:27:14.302Z,21.46
2022-08-31T06:30:22.001Z,21.47
2022-08-31T06:33:25.736Z,21.50
2022-08-31T06:36:38.350Z,21.59
2022-08-31T06:40:12.126Z,21.58
2022-08-31T06:43:31.980Z,21.51
2022-08-31T06:46:39.201Z,21.42
2022-08-31T06:49:53.698Z,21.39
2022-08-31T06:52:57.062Z,21.45
2022-08-31T06:56:21.062Z,21.45
2022-08-31T06:59:41.346Z,21.46
2022-08-31T07:03:21.226Z,21.55
2022-08-31T07:06:26.046Z,21.56
2022-08-31T07:09:27.662Z,21.52
2022-08-31T07:12:29.088Z,21.45
2022-08-31T07:15:30.566Z,21.35
2022-08-31T07:18:32.527Z,21.36
2022-08-31T07:21:39.070Z,21.46
2022-08-31T07:24:40.644Z,21.47
2022-08-31T07:27:42.144Z,21.58
2022-08-31T07:30:44.667Z,21.71
2022-08-31T07:33:50.752Z,21.74
2022-08-31T07:37:12.621Z,21.73
2022-08-31T07:40:33.019Z,21.59
2022-08-31T07:43:36.790Z,21.39
2022-08-31T07:46:40.637Z,21.34
2022-08-31T07:49:47.797Z,21.28
2022-08-31T07:53:06.968Z,21.23
2022-08-31T07:56:25.509Z,21.15
2022-08-31T07:59:41.232Z,21.25
2022-08-31T08:02:50.761Z,21.23
2022-08-31T08:05:55.879Z,21.12
2022-08-31T08:09:24.824Z,21.04
2022-08-31T08:12:37.849Z,20.84
2022-08-31T08:15:46.413Z,20.53
2022-08-31T08:19:08.169Z,20.20
2022-08-31T08:22:09.818Z,20.08
2022-08-31T08:25:34.695Z,19.90
2022-08-31T08:29:00.784Z,19.80
2022-08-31T08:32:02.552Z,19.85
2022-08-31T08:35:04.640Z,19.85
2022-08-31T08:38:07.981Z,19.80
2022-08-31T08:41:15.744Z,19.49
2022-08-31T08:44:18.424Z,19.26
2022-08-31T08:47:39.209Z,19.08
2022-08-31T08:50:43.977Z,18.98
2022-08-31T08:54:02.443Z,18.97
2022-08-31T08:57:21.069Z,18.99
2022-08-31T09:00:26.693Z,18.93
2022-08-31T09:03:48.934Z,18.75
2022-08-31T09:07:22.829Z,18.75
2022-08-31T09:10:35.622Z,18.61
2022-08-31T09:14:19.174Z,18.65
2022-08-31T09:18:00.220Z,18.61
2022-08-31T09:21:21.421Z,18.62
2022-08-31T09:24:27.520Z,18.58
2022-08-31T09:27:57.290Z,18.60
2022-08-31T09:30:58.866Z,18.39
2022-08-31T09:34:02.024Z,18.50
2022-08-31T09:37:16.209Z,18.47
2022-08-31T09:40:23.643Z,18.61
2022-08-31T09:43:34.966Z,18.74
2022-08-31T09:46:36.656Z,18.86
2022-08-31T09:49:39.339Z,18.87
2022-08-31T09:53:00.272Z,18.94
2022-08-31T09:56:20.466Z,19.12
2022-08-31T09:59:37.524Z,19.42
2022-08-31T10:02:40.079Z,19.44
2022-08-31T10:05:43.471Z,19.63
2022-08-31T10:08:57.857Z,19.60
2022-08-31T10:12:04.223Z,19.35
2022-08-31T10:15:16.304Z,19.33
2022-08-31T10:18:32.053Z,19.46
2022-08-31T10:21:51.994Z,19.58
2022-08-31T10:25:12.884Z,19.62
2022-08-31T10:28:31.613Z,19.68
2022-08-31T10:31:42.478Z,19.76
2022-08-31T10:35:05.598Z,19.83
2022-08-31T10:38:24.052Z,19.90
2022-08-31T10:41:30.770Z,19.74
2022-08-31T10:44:56.963Z,19.74
2022-08-31T10:47:59.380Z,19.86
2022-08-31T10:51:22.885Z,19.93
2022-08-31T10:54:54.506Z,19.97
2022-08-31T10:58:14.236Z,20.12
2022-08-31T11:01:22.790Z,20.09
2022-08-31T11:05:11.655Z,20.10
2022-08-31T11:08:25.210Z,20.15
2022-08-31T11:11:51.869Z,20.15
2022-08-31T11:15:17.691Z,20.18
2022-08-31T11:18:53.462Z,20.16
2022-08-31T11:22:19.008Z,20.43
2022-08-31T11:25:37.637Z,20.45
2022-08-31T11:29:09.983Z,20.53
2022-08-31T11:32:21.469Z,20.48
2022-08-31T11:36:08.632Z,20.15
2022-08-31T11:39:09.981Z,19.95
2022-08-31T11:42:26.725Z,20.17
2022-08-31T11:45:32.905Z,20.17
2022-08-31T11:48:57.907Z,20.25
2022-08-31T11:52:00.656Z,20.32
2022-08-31T11:55:15.026Z,20.52
2022-08-31T11:58:20.878Z,20.56
2022-08-31T12:01:35.441Z,20.47
2022-08-31T12:04:46.384Z,20.55
2022-08-31T12:07:48.358Z,20.64
2022-08-31T12:11:11.018Z,20.85
2022-08-31T12:14:25.738Z,21.10
2022-08-31T12:18:04.918Z,20.93
2022-08-31T12:21:43.143Z,20.94
2022-08-31T12:25:03.991Z,21.22
2022-08-31T12:28:29.130Z,21.51
2022-08-31T12:31:34.475Z,21.72
2022-08-31T12:34:40.887Z,21.69
2022-08-31T12:37:43.252Z,21.61
2022-08-31T12:40:47.980Z,21.67
2022-08-31T12:43:49.525Z,21.87
2022-08-31T12:47:16.480Z,22.10
2022-08-31T12:50:37.749Z,22.11
2022-08-31T12:53:51.096Z,22.36
2022-08-31T12:57:11.380Z,22.24
2022-08-31T13:00:20.580Z,22.29
2022-08-31T13:03:26.919Z,22.48
2022-08-31T13:06:37.240Z,22.42
2022-08-31T13:09:38.789Z,22.26
2022-08-31T13:12:48.182Z,22.22
2022-08-31T13:15:51.269Z,22.25
2022-08-31T13:19:00.589Z,22.56
2022-08-31T13:22:16.903Z,22.52
2022-08-31T13:25:28.017Z,22.25
2022-08-31T13:28:34.921Z,22.39
2022-08-31T13:31:49.521Z,22.57
2022-08-31T13:34:54.810Z,22.79
2022-08-31T13:38:04.883Z,22.89
2022-08-31T13:41:17.049Z,23.12
2022-08-31T13:44:22.266Z,23.36
2022-08-31T13:47:27.437Z,23.54
2022-08-31T13:50:53.447Z,23.54
2022-08-31T13:53:54.914Z,23.73
2022-08-31T13:57:08.084Z,23.56
2022-08-31T14:00:43.428Z,23.28
2022-08-31T14:03:59.382Z,23.08
2022-08-31T14:07:01.545Z,23.02
2022-08-31T14:10:14.064Z,23.07
2022-08-31T14:13:27.754Z,23.06
2022-08-31T14:16:34.955Z,23.22
2022-08-31T14:19:39.791Z,23.38
2022-08-31T14:22:45.563Z,23.62
2022-08-31T14:25:47.064Z,23.78
2022-08-31T14:28:53.164Z,23.82
2022-08-31T14:31:54.888Z,23.77
2022-08-31T14:34:57.802Z,24.37
2022-08-31T14:37:59.320Z,24.61
2022-08-31T14:41:00.792Z,24.46
2022-08-31T14:44:09.327Z,24.15
2022-08-31T14:47:12.109Z,24.10
2022-08-31T14:50:18.107Z,23.92
2022-08-31T14:53:20.931Z,24.25
2022-08-31T14:56:26.951Z,24.21
2022-08-31T14:59:29.292Z,24.39
2022-08-31T15:02:34.342Z,24.73
2022-08-31T15:05:39.146Z,24.86
2022-08-31T15:08:41.386Z,24.81
2022-08-31T15:11:45.073Z,24.91
2022-08-31T15:14:47.060Z,24.85
2022-08-31T15:17:51.392Z,24.96
2022-08-31T15:20:53.748Z,24.82
2022-08-31T15:23:55.245Z,24.66
2022-08-31T15:26:57.750Z,24.49
2022-08-31T15:30:07.968Z,24.40
2022-08-31T15:33:09.993Z,24.46
2022-08-31T15:36:15.381Z,24.37
2022-08-31T15:39:16.800Z,24.60
2022-08-31T15:42:22.720Z,24.76
2022-08-31T15:45:27.867Z,24.85
2022-08-31T15:48:41.741Z,24.77
2022-08-31T15:51:49.028Z,24.44
2022-08-31T15:54:50.633Z,24.51
2022-08-31T15:57:54.582Z,24.52
2022-08-31T16:00:56.198Z,24.54
2022-08-31T16:03:58.345Z,24.75
2022-08-31T16:07:00.852Z,24.84
2022-08-31T16:10:11.257Z,24.91
2022-08-31T16:13:15.716Z,25.12
2022-08-31T16:16:18.276Z,25.32
2022-08-31T16:19:34.490Z,25.16
2022-08-31T16:22:37.209Z,24.81
2022-08-31T16:25:48.126Z,24.65
2022-08-31T16:28:50.335Z,24.37
2022-08-31T16:31:52.061Z,24.29
2022-08-31T16:34:54.855Z,24.29
2022-08-31T16:37:56.356Z,24.22
2022-08-31T16:41:04.792Z,24.21
2022-08-31T16:44:19.687Z,24.29
2022-08-31T16:47:21.807Z,24.46
2022-08-31T16:50:23.296Z,24.47
2022-08-31T16:53:25.786Z,24.35
2022-08-31T16:56:29.480Z,24.29
2022-08-31T16:59:31.012Z,24.32
2022-08-31T17:02:33.114Z,24.28
2022-08-31T17:05:34.717Z,24.20
2022-08-31T17:08:41.275Z,24.08
2022-08-31T17:11:49.186Z,23.98
2022-08-31T17:14:52.509Z,23.93
2022-08-31T17:17:55.114Z,23.86
2022-08-31T17:20:57.395Z,23.88
2022-08-31T17:24:03.276Z,23.88
2022-08-31T17:27:07.413Z,23.79
2022-08-31T17:30:09.798Z,23.74
2022-08-31T17:33:15.873Z,23.65
2022-08-31T17:36:19.961Z,23.63
2022-08-31T17:39:23.113Z,23.57
2022-08-31T17:42:26.927Z,23.58
2022-08-31T17:45:28.767Z,23.76
2022-08-31T17:48:30.307Z,23.64
2022-08-31T17:51:33.830Z,23.40
2022-08-31T17:54:40.119Z,23.36
2022-08-31T17:57:42.012Z,23.26
2022-08-31T18:00:43.870Z,23.17
2022-08-31T18:03:45.474Z,23.07
2022-08-31T18:06:47.461Z,23.14
2022-08-31T18:09:48.980Z,23.17
2022-08-31T18:12:50.791Z,23.14
2022-08-31T18:15:52.527Z,23.09
2022-08-31T18:18:54.049Z,22.99
2022-08-31T18:21:56.482Z,23.02
2022-08-31T18:24:58.187Z,22.99
2022-08-31T18:28:03.282Z,22.83
2022-08-31T18:31:07.562Z,22.83
2022-08-31T18:34:12.035Z,22.86
2022-08-31T18:37:15.021Z,22.88
2022-08-31T18:40:34.885Z,22.84
2022-08-31T18:43:55.115Z,22.81
2022-08-31T18:47:02.163Z,22.74
2022-08-31T18:50:04.637Z,22.68
2022-08-31T18:53:07.465Z,22.67
2022-08-31T18:56:12.225Z,22.70
2022-08-31T18:59:15.650Z,22.68
2022-08-31T19:02:22.989Z,22.62
2022-08-31T19:05:24.880Z,22.53
2022-08-31T19:08:26.710Z,22.51
2022-08-31T19:11:28.411Z,22.51
2022-08-31T19:14:34.028Z,22.27
2022-08-31T19:17:36.464Z,22.22
2022-08-31T19:20:37.966Z,22.18
2022-08-31T19:23:39.468Z,22.13
2022-08-31T19:26:48.294Z,22.10
2022-08-31T19:29:55.630Z,22.00
2022-08-31T19:32:57.142Z,21.83
2022-08-31T19:36:03.498Z,21.73
2022-08-31T19:39:10.678Z,21.79
2022-08-31T19:42:13.306Z,21.73
2022-08-31T19:45:40.693Z,21.70
2022-08-31T19:48:44.387Z,21.73
2022-08-31T19:51:52.725Z,21.59
2022-08-31T19:54:54.215Z,21.49
2022-08-31T19:57:55.713Z,21.46
2022-08-31T20:01:01.288Z,21.39
2022-08-31T20:04:15.762Z,21.36
2022-08-31T20:07:20.136Z,21.20
2022-08-31T20:10:21.633Z,21.22
2022-08-31T20:13:25.198Z,21.15
2022-08-31T20:16:33.389Z,21.25
2022-08-31T20:19:38.477Z,21.39
2022-08-31T20:22:40.390Z,21.48
2022-08-31T20:25:46.959Z,21.37
2022-08-31T20:28:50.517Z,21.38
2022-08-31T20:31:52.595Z,21.37
2022-08-31T20:34:55.771Z,21.42
2022-08-31T20:37:57.321Z,21.41
2022-08-31T20:41:03.056Z,21.36
2022-08-31T20:44:10.480Z,21.26
2022-08-31T20:47:30.535Z,21.18
2022-08-31T20:50:32.139Z,21.10
2022-08-31T20:53:42.610Z,21.12
2022-08-31T20:56:45.526Z,21.12
2022-08-31T20:59:47.281Z,21.07
2022-08-31T21:02:49.739Z,21.13
2022-08-31T21:05:52.039Z,21.17
2022-08-31T21:08:56.768Z,21.08
2022-08-31T21:11:59.065Z,21.04
2022-08-31T21:15:00.464Z,20.96
2022-08-31T21:18:01.957Z,20.90
2022-08-31T21:21:09.826Z,20.90
2022-08-31T21:24:13.707Z,20.86
2022-08-31T21:27:17.695Z,20.88
2022-08-31T21:30:19.124Z,20.94
2022-08-31T21:33:21.061Z,20.82
2022-08-31T21:36:23.581Z,20.84
2022-08-31T21:39:25.065Z,20.84
2022-08-31T21:42:26.997Z,20.84
2022-08-31T21:45:28.761Z,20.84
2022-08-31T21:48:32.781Z,20.76
2022-08-31T21:51:37.304Z,20.82
2022-08-31T21:54:40.832Z,20.82
2022-08-31T21:57:43.235Z,20.85
2022-08-31T22:00:45.114Z,20.77
2022-08-31T22:03:48.957Z,20.77
2022-08-31T22:06:50.441Z,20.78
2022-08-31T22:09:51.853Z,20.74
2022-08-31T22:12:53.273Z,20.72
2022-08-31T22:15:55.906Z,20.65
2022-08-31T22:19:01.423Z,20.69
2022-08-31T22:22:08.958Z,20.69
2022-08-31T22:25:13.284Z,20.71
2022-08-31T22:28:14.876Z,20.75
2022-08-31T22:31:19.677Z,20.66
2022-08-31T22:34:22.281Z,20.61
2022-08-31T22:37:23.715Z,20.63
2022-08-31T22:40:25.236Z,20.52
2022-08-31T22:43:26.674Z,20.45
2022-08-31T22:46:28.332Z,20.46
2022-08-31T22:49:30.125Z,20.37
2022-08-31T22:52:32.426Z,20.42
2022-08-31T22:55:38.279Z,20.35
2022-08-31T22:58:40.805Z,20.35
2022-08-31T23:01:52.922Z,20.30
2022-08-31T23:04:54.516Z,20.27
2022-08-31T23:07:55.926Z,20.23
2022-08-31T23:10:57.320Z,20.28
2022-08-31T23:14:01.902Z,20.29
2022-08-31T23:17:09.023Z,20.28
2022-08-31T23:20:16.057Z,20.29
2022-08-31T23:23:17.489Z,20.28
2022-08-31T23:26:20.998Z,20.31
2022-08-31T23:29:22.400Z,20.27
2022-08-31T23:32:27.763Z,20.22
2022-08-31T23:35:29.223Z,20.14
2022-08-31T23:38:34.990Z,20.12
2022-08-31T23:41:38.825Z,20.06
2022-08-31T23:44:43.400Z,20.05
2022-08-31T23:47:44.951Z,20.01
2022-08-31T23:50:46.369Z,20.03
2022-08-31T23:54:00.192Z,19.97
2022-08-31T23:57:02.132Z,19.93
